Time;durP1;ratioP1;P1;durP2;ratioP2;P2;SDS_P1;SDS_P2;PMS_P1;PMS_P2;Temp;Humidity;BMP_temperature;BMP_pressure;BME280_temperature;BME280_humidity;BME280_pressure;Samples;Min_cycle;Max_cycle;Signal;HPM_P1;HPM_P2
2023/03/17 00:00:45;;;;;;;9.03;4.47;;;7.30;99.90;;;;;;5051406;28;20059;-76
2023/03/17 00:03:24;;;;;;;7.43;4.90;;;7.30;99.90;;;;;;5067631;28;20055;-76
2023/03/17 00:05:52;;;;;;;8.83;6.30;;;7.40;99.90;;;;;;5068673;28;20052;-75
2023/03/17 00:08:38;;;;;;;7.13;4.47;;;7.30;99.90;;;;;;5034650;28;20052;-75
2023/03/17 00:11:09;;;;;;;7.50;4.60;;;7.50;99.90;;;;;;5068219;28;20056;-76
2023/03/17 00:13:35;;;;;;;8.57;4.78;;;7.50;99.90;;;;;;5068175;28;20072;-75
2023/03/17 00:16:03;;;;;;;5.97;4.03;;;7.50;99.90;;;;;;5069003;28;20572;-76
2023/03/17 00:18:30;;;;;;;7.93;4.40;;;7.50;99.90;;;;;;5052925;28;20052;-76
2023/03/17 00:20:57;;;;;;;7.60;4.07;;;7.50;99.90;;;;;;5051440;28;20080;-75
2023/03/17 00:23:24;;;;;;;7.60;3.93;;;7.50;99.90;;;;;;5067208;28;20057;-76
2023/03/17 00:25:52;;;;;;;7.23;4.17;;;7.60;99.90;;;;;;5051064;28;20070;-76
2023/03/17 00:28:26;;;;;;;8.27;4.43;;;7.50;99.90;;;;;;5052408;28;20056;-75
2023/03/17 00:30:55;;;;;;;7.20;4.53;;;7.50;99.90;;;;;;5051582;28;20117;-76
2023/03/17 00:33:32;;;;;;;7.13;4.37;;;7.50;99.90;;;;;;5072599;28;20082;-76
2023/03/17 00:35:58;;;;;;;5.73;3.57;;;7.60;99.90;;;;;;5066737;28;20091;-76
2023/03/17 00:38:24;;;;;;;6.80;3.63;;;7.50;99.90;;;;;;5018366;28;20056;-75
2023/03/17 00:40:50;;;;;;;6.47;3.87;;;7.60;99.90;;;;;;5068553;28;20110;-76
2023/03/17 00:43:16;;;;;;;6.70;3.73;;;7.50;99.90;;;;;;5049956;28;20055;-75
2023/03/17 00:45:43;;;;;;;6.90;4.17;;;7.50;99.90;;;;;;5084210;28;20048;-76
2023/03/17 00:48:20;;;;;;;7.37;3.67;;;7.50;99.90;;;;;;5052051;28;20060;-76
2023/03/17 00:50:48;;;;;;;8.60;3.70;;;7.60;99.90;;;;;;5064868;28;20426;-75
2023/03/17 00:53:16;;;;;;;8.20;4.00;;;7.60;99.90;;;;;;5052243;28;20513;-76
2023/03/17 00:55:43;;;;;;;5.23;3.50;;;7.60;99.90;;;;;;5050179;28;20075;-76
2023/03/17 00:58:23;;;;;;;6.00;3.53;;;7.50;99.90;;;;;;5018103;28;20072;-76
2023/03/17 01:00:49;;;;;;;6.50;4.13;;;7.50;99.90;;;;;;5068642;28;20172;-75
2023/03/17 01:03:15;;;;;;;6.43;3.83;;;7.50;99.90;;;;;;5062781;28;20131;-75
2023/03/17 01:05:41;;;;;;;6.37;3.80;;;7.50;99.90;;;;;;5069188;28;20140;-76
2023/03/17 01:08:08;;;;;;;5.67;3.80;;;7.40;99.90;;;;;;5053963;28;20048;-76
2023/03/17 01:10:34;;;;;;;7.13;4.10;;;7.50;99.90;;;;;;5053929;28;20506;-76
2023/03/17 01:13:01;;;;;;;6.57;3.40;;;7.50;99.90;;;;;;5053373;28;20041;-75
2023/03/17 01:15:30;;;;;;;7.20;3.77;;;7.50;99.90;;;;;;5072475;28;20097;-77
2023/03/17 01:18:01;;;;;;;4.40;3.33;;;7.50;99.90;;;;;;5037987;28;20296;-76
2023/03/17 01:20:32;;;;;;;6.38;3.70;;;7.50;99.90;;;;;;5055033;28;20056;-76
2023/03/17 01:22:59;;;;;;;5.10;3.53;;;7.50;99.90;;;;;;5070741;28;20106;-75
2023/03/17 01:25:26;;;;;;;5.80;3.40;;;7.50;99.90;;;;;;5072230;28;20047;-75
2023/03/17 01:27:54;;;;;;;6.50;3.97;;;7.50;99.90;;;;;;5055427;28;20052;-75
2023/03/17 01:30:22;;;;;;;6.27;4.00;;;7.60;99.90;;;;;;5072725;28;20560;-75
2023/03/17 01:32:48;;;;;;;5.17;3.27;;;7.60;99.90;;;;;;5082626;28;20059;-76
2023/03/17 01:35:15;;;;;;;5.47;3.70;;;7.60;99.90;;;;;;5071740;28;20048;-75
2023/03/17 01:37:41;;;;;;;6.13;4.17;;;7.60;99.90;;;;;;5038421;28;20394;-76
2023/03/17 01:40:11;;;;;;;4.80;3.47;;;7.60;99.90;;;;;;5072936;28;20521;-75
2023/03/17 01:42:38;;;;;;;7.47;3.83;;;7.60;99.90;;;;;;5071100;28;20498;-75
2023/03/17 01:45:27;;;;;;;6.63;3.60;;;7.60;99.90;;;;;;5071649;28;20282;-76
2023/03/17 01:47:53;;;;;;;6.23;3.60;;;7.60;99.90;;;;;;5055189;28;20509;-76
2023/03/17 01:50:19;;;;;;;8.97;4.00;;;7.60;99.90;;;;;;5071006;28;20046;-76
2023/03/17 01:52:45;;;;;;;6.03;3.80;;;7.50;99.90;;;;;;5048166;28;20051;-76
2023/03/17 01:55:16;;;;;;;5.47;3.60;;;7.50;99.90;;;;;;5071915;28;20041;-75
2023/03/17 01:57:49;;;;;;;;;;;7.60;99.90;;;;;;5036722;28;20407;-77
2023/03/17 02:00:22;;;;;;;7.57;3.67;;;7.60;99.90;;;;;;5071538;28;19927;-75
2023/03/17 02:02:54;;;;;;;7.90;3.70;;;7.60;99.90;;;;;;5036213;28;20490;-75
2023/03/17 02:05:24;;;;;;;5.57;3.60;;;7.60;99.90;;;;;;5072056;28;20060;-75
2023/03/17 02:07:52;;;;;;;7.73;3.63;;;7.60;99.90;;;;;;5055371;28;20045;-75
2023/03/17 02:10:19;;;;;;;5.70;3.47;;;7.60;99.90;;;;;;5071593;28;20095;-75
2023/03/17 02:12:49;;;;;;;5.93;3.80;;;7.50;99.90;;;;;;5036228;28;20049;-76
2023/03/17 02:15:16;;;;;;;5.67;3.63;;;7.50;99.90;;;;;;5071093;28;20110;-76
2023/03/17 02:17:42;;;;;;;6.17;3.23;;;7.50;99.90;;;;;;5037138;28;20048;-76
2023/03/17 02:20:27;;;;;;;6.03;3.30;;;7.40;99.90;;;;;;5053086;28;20048;-76
2023/03/17 02:22:56;;;;;;;6.90;3.60;;;7.40;99.90;;;;;;5017998;28;20056;-75
2023/03/17 02:25:23;;;;;;;6.93;3.90;;;7.30;99.90;;;;;;5070785;28;20439;-76
2023/03/17 02:27:54;;;;;;;6.13;3.60;;;7.40;99.90;;;;;;5054001;28;20083;-75
2023/03/17 02:30:22;;;;;;;5.72;3.92;;;7.40;99.90;;;;;;5071488;28;20052;-76
2023/03/17 02:32:48;;;;;;;8.47;3.63;;;7.40;99.90;;;;;;5084167;28;20067;-76
2023/03/17 02:35:15;;;;;;;6.57;3.90;;;7.40;99.90;;;;;;5070931;28;20490;-76
2023/03/17 02:37:42;;;;;;;5.27;3.40;;;7.50;99.90;;;;;;5055369;28;20387;-75
2023/03/17 02:40:10;;;;;;;6.97;3.67;;;7.40;99.90;;;;;;5037065;28;20143;-76
2023/03/17 02:42:38;;;;;;;6.80;3.40;;;7.50;99.90;;;;;;5052527;28;20037;-76
2023/03/17 02:45:05;;;;;;;7.47;3.67;;;7.40;99.90;;;;;;5076559;28;20044;-75
2023/03/17 02:47:31;;;;;;;8.37;3.90;;;7.40;99.90;;;;;;5054524;28;20067;-76
2023/03/17 02:49:58;;;;;;;6.80;3.70;;;7.40;99.90;;;;;;5070461;28;20091;-76
2023/03/17 02:52:24;;;;;;;4.73;3.33;;;7.30;99.90;;;;;;5059336;28;20059;-76
2023/03/17 02:54:50;;;;;;;6.00;4.10;;;7.30;99.90;;;;;;5070715;28;20045;-76
2023/03/17 02:57:16;;;;;;;5.30;3.90;;;7.30;99.90;;;;;;5053806;28;20435;-76
2023/03/17 02:59:42;;;;;;;5.13;3.53;;;7.30;99.90;;;;;;5052682;28;20407;-76
2023/03/17 03:02:08;;;;;;;7.93;3.97;;;7.30;99.90;;;;;;5068802;28;20051;-76
2023/03/17 03:04:34;;;;;;;5.37;3.50;;;7.20;99.90;;;;;;5052299;28;20558;-76
2023/03/17 03:07:00;;;;;;;8.20;3.90;;;7.20;99.90;;;;;;5054447;28;20044;-76
2023/03/17 03:09:26;;;;;;;5.60;3.73;;;7.20;99.90;;;;;;5068008;28;20047;-75
2023/03/17 03:11:52;;;;;;;5.80;3.90;;;7.20;99.90;;;;;;5070466;28;20119;-76
2023/03/17 03:14:17;;;;;;;7.10;3.60;;;7.10;99.90;;;;;;5069295;28;20056;-75
2023/03/17 03:16:43;;;;;;;5.40;3.40;;;7.10;99.90;;;;;;5054870;28;20049;-76
2023/03/17 03:19:09;;;;;;;6.67;4.07;;;7.20;99.90;;;;;;5069727;28;20048;-76
2023/03/17 03:21:35;;;;;;;6.90;3.87;;;7.10;99.90;;;;;;5070437;28;20040;-76
2023/03/17 03:24:02;;;;;;;9.17;4.07;;;7.20;99.90;;;;;;5049990;28;20040;-76
2023/03/17 03:26:28;;;;;;;6.83;3.63;;;7.10;99.90;;;;;;5057834;28;20201;-75
2023/03/17 03:28:56;;;;;;;5.87;3.70;;;7.20;99.90;;;;;;5048266;28;20119;-76
2023/03/17 03:31:21;;;;;;;7.97;4.00;;;7.20;99.90;;;;;;5072494;28;20576;-76
2023/03/17 03:33:47;;;;;;;7.10;3.97;;;7.20;99.90;;;;;;5069086;28;20052;-76
2023/03/17 03:36:13;;;;;;;7.17;4.07;;;7.10;99.90;;;;;;5060178;28;20048;-76
2023/03/17 03:38:40;;;;;;;6.87;4.23;;;7.20;99.90;;;;;;5064059;28;20442;-76
2023/03/17 03:41:07;;;;;;;7.40;4.07;;;7.20;99.90;;;;;;5069898;28;20040;-75
2023/03/17 03:43:33;;;;;;;6.40;4.27;;;7.10;99.90;;;;;;5069159;28;20060;-76
2023/03/17 03:45:59;;;;;;;8.60;4.23;;;7.10;99.90;;;;;;5051018;28;20103;-75
2023/03/17 03:48:24;;;;;;;5.97;4.10;;;7.10;99.90;;;;;;5035098;28;20490;-75
2023/03/17 03:50:55;;;;;;;6.77;3.97;;;7.10;99.90;;;;;;5065739;28;20123;-76
2023/03/17 03:53:21;;;;;;;7.43;3.87;;;7.10;99.90;;;;;;5057654;28;20053;-75
2023/03/17 03:55:46;;;;;;;4.73;3.60;;;7.10;99.90;;;;;;5069357;28;20094;-75
2023/03/17 03:58:12;;;;;;;7.33;4.10;;;7.20;99.90;;;;;;5053319;28;20052;-76
2023/03/17 04:00:38;;;;;;;5.27;3.67;;;7.20;99.90;;;;;;5069187;28;20056;-76
2023/03/17 04:03:04;;;;;;;6.80;3.97;;;7.20;99.90;;;;;;5049809;28;20055;-76
2023/03/17 04:05:29;;;;;;;6.63;3.87;;;7.20;99.90;;;;;;5069988;28;20048;-75
2023/03/17 04:07:55;;;;;;;7.20;4.17;;;7.20;99.90;;;;;;5052300;28;20052;-75
2023/03/17 04:10:22;;;;;;;6.07;3.57;;;7.20;99.90;;;;;;5069555;28;20049;-76
2023/03/17 04:12:47;;;;;;;7.03;3.70;;;7.30;99.90;;;;;;5068432;28;20433;-75
2023/03/17 04:15:15;;;;;;;5.40;3.93;;;7.20;99.90;;;;;;5069077;28;20098;-76
2023/03/17 04:17:41;;;;;;;5.53;3.83;;;7.20;99.90;;;;;;5033986;28;20041;-75
2023/03/17 04:20:08;;;;;;;7.03;3.83;;;7.20;99.90;;;;;;5051293;28;20079;-76
2023/03/17 04:22:33;;;;;;;5.80;3.83;;;7.20;99.90;;;;;;5049735;28;20127;-76
2023/03/17 04:24:59;;;;;;;7.83;3.80;;;7.20;99.90;;;;;;5068783;28;20475;-76
2023/03/17 04:27:25;;;;;;;6.77;3.83;;;7.10;99.90;;;;;;5033659;28;20249;-76
2023/03/17 04:29:51;;;;;;;6.30;4.00;;;7.10;99.90;;;;;;5051390;28;20483;-75
2023/03/17 04:32:17;;;;;;;6.17;3.90;;;7.10;99.90;;;;;;5077499;28;20105;-76
2023/03/17 04:34:43;;;;;;;7.43;3.97;;;7.10;99.90;;;;;;5068817;28;20509;-75
2023/03/17 04:37:10;;;;;;;6.57;4.00;;;7.00;99.90;;;;;;5053192;28;20045;-75
2023/03/17 04:39:36;;;;;;;5.23;3.70;;;7.10;99.90;;;;;;5050330;28;20075;-75
2023/03/17 04:42:02;;;;;;;5.63;4.03;;;7.00;99.90;;;;;;5068505;28;20528;-75
2023/03/17 04:44:28;;;;;;;7.23;3.70;;;6.90;99.90;;;;;;5068209;28;20460;-75
2023/03/17 04:46:54;;;;;;;8.57;3.80;;;6.80;99.90;;;;;;5053142;28;20048;-77
2023/03/17 04:49:20;;;;;;;8.43;3.60;;;6.80;99.90;;;;;;5067983;28;20469;-75
2023/03/17 04:51:45;;;;;;;7.67;3.60;;;6.90;99.90;;;;;;5064894;28;20509;-75
2023/03/17 04:54:11;;;;;;;6.07;3.73;;;6.80;99.90;;;;;;5067604;28;20060;-75
2023/03/17 04:56:37;;;;;;;9.50;4.00;;;6.80;99.90;;;;;;5020191;28;20056;-76
2023/03/17 04:59:03;;;;;;;6.23;4.07;;;6.80;99.90;;;;;;5066080;28;20502;-75
2023/03/17 05:01:29;;;;;;;8.37;4.37;;;6.70;99.90;;;;;;5049507;28;20063;-75
2023/03/17 05:03:55;;;;;;;7.60;3.63;;;6.80;99.90;;;;;;5059190;28;20045;-76
2023/03/17 05:06:20;;;;;;;8.13;4.03;;;6.70;99.90;;;;;;5055934;28;20048;-77
2023/03/17 05:08:46;;;;;;;8.57;3.87;;;6.70;99.90;;;;;;5046408;28;20067;-75
2023/03/17 05:11:12;;;;;;;7.13;3.93;;;6.70;99.90;;;;;;5067683;28;20083;-75
2023/03/17 05:13:41;;;;;;;7.13;3.77;;;6.70;99.90;;;;;;5067608;28;20380;-75
2023/03/17 05:16:08;;;;;;;9.13;4.43;;;6.70;99.90;;;;;;5044430;28;20049;-77
2023/03/17 05:18:35;;;;;;;6.43;3.67;;;6.60;99.90;;;;;;5058603;28;20124;-75
2023/03/17 05:21:01;;;;;;;8.40;3.63;;;6.70;99.90;;;;;;5068940;28;20272;-75
2023/03/17 05:23:27;;;;;;;11.90;7.07;;;6.60;99.90;;;;;;5049329;28;20048;-75
2023/03/17 05:25:53;;;;;;;7.53;4.37;;;6.60;99.90;;;;;;5068052;28;20066;-76
2023/03/17 05:28:19;;;;;;;7.97;5.10;;;6.70;99.90;;;;;;5017310;28;20479;-75
2023/03/17 05:30:47;;;;;;;8.10;4.83;;;6.70;99.90;;;;;;5050585;28;20094;-76
2023/03/17 05:33:15;;;;;;;8.57;4.37;;;6.80;99.90;;;;;;5063031;28;20044;-75
2023/03/17 05:35:41;;;;;;;7.57;4.43;;;6.80;99.90;;;;;;5067850;28;20055;-75
2023/03/17 05:38:07;;;;;;;7.90;4.70;;;6.70;99.90;;;;;;5052960;28;20036;-75
2023/03/17 05:40:34;;;;;;;8.20;5.10;;;6.70;99.90;;;;;;5047463;28;20048;-76
2023/03/17 05:43:00;;;;;;;10.53;6.27;;;6.80;99.90;;;;;;5047088;28;20047;-76
2023/03/17 05:45:26;;;;;;;7.57;4.73;;;6.80;99.90;;;;;;5057450;28;20045;-76
2023/03/17 05:47:51;;;;;;;8.70;5.03;;;6.80;99.90;;;;;;5047524;28;20063;-75
2023/03/17 05:50:17;;;;;;;9.93;5.50;;;6.80;99.90;;;;;;5049273;28;20072;-75
2023/03/17 05:52:43;;;;;;;6.67;4.30;;;6.90;99.90;;;;;;5039196;28;20048;-75
2023/03/17 05:55:09;;;;;;;12.07;6.50;;;6.90;99.90;;;;;;5070424;28;20075;-77
2023/03/17 05:57:34;;;;;;;11.40;5.93;;;6.90;99.90;;;;;;5049070;28;20398;-76
2023/03/17 06:00:01;;;;;;;10.77;6.50;;;6.90;99.90;;;;;;5068484;28;20048;-76
2023/03/17 06:02:26;;;;;;;7.50;4.77;;;6.90;99.90;;;;;;5044676;28;20447;-76
2023/03/17 06:04:52;;;;;;;9.20;5.13;;;7.00;99.90;;;;;;5068322;28;20127;-77
2023/03/17 06:07:18;;;;;;;8.97;4.20;;;7.00;99.90;;;;;;5052250;28;20398;-77
2023/03/17 06:09:43;;;;;;;7.93;4.60;;;7.00;99.90;;;;;;5067793;28;20093;-76
2023/03/17 06:12:09;;;;;;;8.73;4.77;;;7.00;99.90;;;;;;5068014;28;20058;-75
2023/03/17 06:14:35;;;;;;;11.20;6.30;;;7.00;99.90;;;;;;5035310;28;20123;-76
2023/03/17 06:17:01;;;;;;;11.23;6.13;;;7.00;99.90;;;;;;5055381;28;20043;-75
2023/03/17 06:19:27;;;;;;;7.03;4.17;;;7.10;99.90;;;;;;5033133;28;20105;-77
2023/03/17 06:21:53;;;;;;;9.53;4.33;;;7.10;99.90;;;;;;5070322;28;20040;-76
2023/03/17 06:24:19;;;;;;;13.87;12.50;;;7.10;99.90;;;;;;5066705;28;20064;-76
2023/03/17 06:26:45;;;;;;;8.83;5.83;;;7.10;99.90;;;;;;5054796;28;20080;-76
2023/03/17 06:29:11;;;;;;;9.30;4.10;;;7.10;99.90;;;;;;5069011;28;20040;-76
2023/03/17 06:31:37;;;;;;;11.87;4.40;;;7.10;99.90;;;;;;5054541;28;20054;-75
2023/03/17 06:34:04;;;;;;;8.33;4.17;;;7.20;99.90;;;;;;5065250;28;20079;-76
2023/03/17 06:36:33;;;;;;;5.87;3.83;;;7.20;99.90;;;;;;5041071;28;20052;-77
2023/03/17 06:38:59;;;;;;;6.87;3.73;;;7.10;99.90;;;;;;5042848;28;20055;-75
2023/03/17 06:41:25;;;;;;;6.77;3.57;;;7.20;99.90;;;;;;5070135;28;20044;-75
2023/03/17 06:43:51;;;;;;;7.23;3.73;;;7.20;99.90;;;;;;5068304;28;20135;-75
2023/03/17 06:46:17;;;;;;;7.43;3.63;;;7.30;99.90;;;;;;5059361;28;20399;-76
2023/03/17 06:48:43;;;;;;;10.03;4.20;;;7.20;99.90;;;;;;5040864;28;20116;-76
2023/03/17 06:51:08;;;;;;;6.67;4.00;;;7.20;99.90;;;;;;5064646;28;20063;-76
2023/03/17 06:53:35;;;;;;;5.67;3.73;;;7.20;99.90;;;;;;5062798;28;20331;-76
2023/03/17 06:56:01;;;;;;;6.30;3.50;;;7.10;99.90;;;;;;5058600;28;20406;-76
2023/03/17 06:58:27;;;;;;;6.73;3.90;;;7.20;99.90;;;;;;5016445;28;20494;-76
2023/03/17 07:00:53;;;;;;;5.20;3.57;;;7.10;99.90;;;;;;5061371;28;20098;-77
2023/03/17 07:03:22;;;;;;;6.87;4.17;;;7.10;99.90;;;;;;5062105;28;20047;-77
2023/03/17 07:05:48;;;;;;;9.60;3.90;;;7.30;99.90;;;;;;5066129;28;20462;-77
2023/03/17 07:08:14;;;;;;;6.73;4.00;;;7.20;99.90;;;;;;5049293;28;20039;-77
2023/03/17 07:10:43;;;;;;;7.33;4.17;;;7.20;99.90;;;;;;5065491;28;20458;-77
2023/03/17 07:13:09;;;;;;;8.17;4.37;;;7.10;99.90;;;;;;5043950;28;20033;-77
2023/03/17 07:15:36;;;;;;;7.63;4.17;;;7.20;99.90;;;;;;5067025;28;20448;-78
2023/03/17 07:18:02;;;;;;;6.10;3.83;;;7.20;99.90;;;;;;5019382;28;20490;-76
2023/03/17 07:20:28;;;;;;;8.00;4.30;;;7.10;99.90;;;;;;5049708;28;20056;-76
2023/03/17 07:22:54;;;;;;;9.70;4.13;;;7.20;99.90;;;;;;5065764;28;20045;-76
2023/03/17 07:25:21;;;;;;;7.10;4.27;;;7.30;99.90;;;;;;5053815;28;20044;-77
2023/03/17 07:27:47;;;;;;;5.73;4.00;;;7.40;99.90;;;;;;5039684;28;20048;-77
2023/03/17 07:30:17;;;;;;;7.87;3.87;;;7.40;99.90;;;;;;5046259;28;20044;-77
2023/03/17 07:32:46;;;;;;;8.60;3.87;;;7.50;99.90;;;;;;5050160;28;20462;-76
2023/03/17 07:35:14;;;;;;;6.03;3.70;;;7.60;99.90;;;;;;5051859;28;20052;-77
2023/03/17 07:37:40;;;;;;;6.27;3.87;;;7.60;99.90;;;;;;5032898;28;20422;-77
2023/03/17 07:40:08;;;;;;;7.03;3.73;;;7.70;99.90;;;;;;5052691;28;20398;-76
2023/03/17 07:42:34;;;;;;;5.47;3.60;;;7.90;99.90;;;;;;5030172;28;20048;-76
2023/03/17 07:45:01;;;;;;;7.17;3.80;;;8.10;99.90;;;;;;5030896;28;20297;-78
2023/03/17 07:47:26;;;;;;;6.80;4.30;;;8.40;99.90;;;;;;5017531;28;20119;-76
2023/03/17 07:49:53;;;;;;;8.73;4.30;;;8.60;99.90;;;;;;5038694;28;20380;-77
2023/03/17 07:52:19;;;;;;;7.63;4.07;;;9.00;99.90;;;;;;5050446;28;20056;-77
2023/03/17 07:54:44;;;;;;;5.73;4.00;;;9.10;99.90;;;;;;5047682;28;20596;-76
2023/03/17 07:57:10;;;;;;;7.67;3.67;;;9.20;99.90;;;;;;5033511;28;20043;-77
2023/03/17 07:59:37;;;;;;;7.30;3.97;;;9.10;99.90;;;;;;5053474;28;20087;-78
2023/03/17 08:02:03;;;;;;;4.83;3.93;;;9.00;99.90;;;;;;5059763;28;20154;-76
2023/03/17 08:04:29;;;;;;;5.50;3.90;;;9.00;99.90;;;;;;5050040;28;20052;-77
2023/03/17 08:06:55;;;;;;;5.83;3.97;;;9.10;99.90;;;;;;5033725;28;20055;-76
2023/03/17 08:09:22;;;;;;;9.97;3.90;;;9.20;99.90;;;;;;5052324;28;20050;-77
2023/03/17 08:11:48;;;;;;;8.40;3.70;;;9.30;99.90;;;;;;5048378;28;20040;-77
2023/03/17 08:14:14;;;;;;;5.63;3.37;;;9.30;99.90;;;;;;5047549;28;20040;-76
2023/03/17 08:16:40;;;;;;;8.57;4.00;;;9.20;99.90;;;;;;5036508;28;20083;-77
2023/03/17 08:19:07;;;;;;;6.33;4.17;;;9.20;99.90;;;;;;5027153;28;20072;-76
2023/03/17 08:21:33;;;;;;;10.17;5.27;;;9.10;99.90;;;;;;5048669;28;20057;-77
2023/03/17 08:23:58;;;;;;;11.27;6.53;;;9.20;99.90;;;;;;5047620;28;20568;-77
2023/03/17 08:26:25;;;;;;;12.73;7.03;;;9.20;99.90;;;;;;5036567;28;20516;-78
2023/03/17 08:28:51;;;;;;;12.00;7.00;;;9.20;99.90;;;;;;5043748;28;20143;-78
2023/03/17 08:31:19;;;;;;;8.57;4.67;;;9.20;99.90;;;;;;5055166;28;20066;-76
2023/03/17 08:33:48;;;;;;;6.77;4.20;;;9.10;99.90;;;;;;5037829;28;20060;-78
2023/03/17 08:36:15;;;;;;;8.53;4.17;;;9.10;99.90;;;;;;5042066;28;20048;-78
2023/03/17 08:38:42;;;;;;;7.73;4.30;;;9.20;99.90;;;;;;5034277;28;20067;-76
2023/03/17 08:41:12;;;;;;;6.77;4.00;;;9.10;99.90;;;;;;5043116;28;20085;-78
2023/03/17 08:43:38;;;;;;;6.60;3.90;;;9.10;99.90;;;;;;5029726;28;20139;-76
2023/03/17 08:46:20;;;;;;;5.53;3.70;;;9.10;99.90;;;;;;5048497;28;20578;-78
2023/03/17 08:48:48;;;;;;;6.13;3.93;;;9.20;99.90;;;;;;5058208;28;20076;-78
2023/03/17 08:51:14;;;;;;;5.33;3.90;;;9.20;99.90;;;;;;5048167;28;20053;-77
2023/03/17 08:53:40;;;;;;;6.57;3.60;;;9.10;99.90;;;;;;5031590;28;20049;-77
2023/03/17 08:56:07;;;;;;;7.73;4.07;;;9.30;99.90;;;;;;5007439;28;20052;-78
2023/03/17 08:58:35;;;;;;;8.13;3.80;;;9.40;99.90;;;;;;5047907;28;20185;-78
2023/03/17 09:01:03;;;;;;;8.33;4.30;;;9.40;99.90;;;;;;5048376;28;20063;-78
2023/03/17 09:03:32;;;;;;;12.00;4.37;;;9.50;99.90;;;;;;5047091;28;20052;-77
2023/03/17 09:05:58;;;;;;;5.53;4.07;;;9.70;99.90;;;;;;5047587;28;20574;-77
2023/03/17 09:08:26;;;;;;;6.53;3.90;;;9.80;99.90;;;;;;5030024;28;20055;-77
2023/03/17 09:10:53;;;;;;;6.37;4.33;;;9.90;99.90;;;;;;5055809;28;20273;-78
2023/03/17 09:13:19;;;;;;;8.87;4.13;;;10.00;99.90;;;;;;5046681;28;20823;-77
2023/03/17 09:15:45;;;;;;;5.83;3.47;;;10.10;99.90;;;;;;5050893;28;20486;-77
2023/03/17 09:18:11;;;;;;;6.37;3.60;;;10.50;99.90;;;;;;5032728;28;20048;-77
2023/03/17 09:20:37;;;;;;;6.70;4.30;;;10.90;99.90;;;;;;5047539;28;20352;-78
2023/03/17 09:23:07;;;;;;;9.90;4.97;;;11.20;99.90;;;;;;5025124;28;20410;-78
2023/03/17 09:25:37;;;;;;;7.75;4.32;;;11.10;99.90;;;;;;5012990;28;20123;-77
2023/03/17 09:28:03;;;;;;;8.10;3.50;;;11.30;99.90;;;;;;5012469;28;20506;-77
2023/03/17 09:30:31;;;;;;;6.77;3.40;;;11.30;99.90;;;;;;5051955;28;20524;-77
2023/03/17 09:32:56;;;;;;;7.57;4.57;;;11.50;99.90;;;;;;5047258;28;20055;-76
2023/03/17 09:35:22;;;;;;;6.75;3.67;;;12.00;99.90;;;;;;5060607;28;20056;-77
2023/03/17 09:37:48;;;;;;;7.78;4.32;;;12.30;99.90;;;;;;5037392;28;20415;-77
2023/03/17 09:40:21;;;;;;;8.57;4.97;;;12.50;99.90;;;;;;5049378;28;20123;-78
2023/03/17 09:43:03;;;;;;;5.80;3.95;;;12.50;99.90;;;;;;5049667;28;20052;-77
2023/03/17 09:45:40;;;;;;;4.78;3.38;;;12.50;99.90;;;;;;5050035;28;20060;-77
2023/03/17 09:48:22;;;;;;;6.60;3.33;;;12.40;99.90;;;;;;5035960;28;20049;-77
2023/03/17 09:50:53;;;;;;;6.18;3.55;;;12.60;99.90;;;;;;5054073;28;20072;-77
2023/03/17 09:53:49;;;;;;;6.63;3.97;;;12.60;99.90;;;;;;5036425;28;20289;-78
2023/03/17 09:56:17;;;;;;;6.95;3.67;;;12.30;99.90;;;;;;5044907;28;20055;-78
2023/03/17 09:58:52;;;;;;;6.53;3.78;;;12.70;99.90;;;;;;5037523;28;20419;-77
2023/03/17 10:01:19;;;;;;;6.65;3.42;;;12.70;99.90;;;;;;5055893;28;20056;-77
2023/03/17 10:03:46;;;;;;;5.95;3.60;;;12.70;99.90;;;;;;5066557;28;20101;-76
2023/03/17 10:06:38;;;;;;;8.65;4.38;;;12.60;99.90;;;;;;5007612;28;20415;-78
2023/03/17 10:09:18;;;;;;;7.05;3.70;;;12.30;99.90;;;;;;5050647;28;20044;-78
2023/03/17 10:11:51;;;;;;;6.45;3.90;;;12.30;99.90;;;;;;5035764;28;20208;-77
2023/03/17 10:14:53;;;;;;;6.72;3.92;;;12.70;99.90;;;;;;5050882;28;20358;-79
2023/03/17 10:17:28;;;;;;;7.15;4.40;;;12.70;99.90;;;;;;5004592;28;20094;-78
2023/03/17 10:20:07;;;;;;;4.35;3.42;;;13.00;99.90;;;;;;5053625;28;20159;-78
2023/03/17 10:22:54;;;;;;;6.57;3.75;;;13.00;99.90;;;;;;5048769;28;20059;-78
2023/03/17 10:25:23;;;;;;;5.60;3.60;;;13.30;99.90;;;;;;5053058;28;20461;-77
2023/03/17 10:27:58;;;;;;;5.47;3.40;;;13.60;99.90;;;;;;5016125;28;20045;-77
2023/03/17 10:30:25;;;;;;;6.18;3.97;;;13.60;99.90;;;;;;5033195;28;20059;-78
2023/03/17 10:32:52;;;;;;;7.47;3.90;;;14.00;99.90;;;;;;5055099;28;20138;-77
2023/03/17 10:35:19;;;;;;;4.80;3.22;;;14.10;99.90;;;;;;5041674;28;20089;-77
2023/03/17 10:37:48;;;;;;;4.75;3.65;;;14.20;99.90;;;;;;5035455;28;21834;-78
2023/03/17 10:40:21;;;;;;;6.72;3.80;;;14.50;99.90;;;;;;5049635;28;20394;-77
2023/03/17 10:42:51;;;;;;;5.85;3.90;;;14.70;99.90;;;;;;5032163;28;20074;-78
2023/03/17 10:45:27;;;;;;;7.30;3.50;;;14.40;99.90;;;;;;5051509;28;20363;-77
2023/03/17 10:47:56;;;;;;;5.70;3.78;;;14.70;99.90;;;;;;5023232;28;20696;-77
2023/03/17 10:50:33;;;;;;;9.02;3.95;;;14.80;99.90;;;;;;5041392;28;20497;-77
2023/03/17 10:53:03;;;;;;;7.18;4.00;;;15.00;99.90;;;;;;5051551;28;20045;-77
2023/03/17 10:55:32;;;;;;;6.13;3.90;;;15.00;99.90;;;;;;5049968;28;20063;-78
2023/03/17 10:58:04;;;;;;;8.88;4.20;;;15.50;99.90;;;;;;5034748;28;20051;-77
2023/03/17 11:00:34;;;;;;;6.00;4.30;;;15.20;99.90;;;;;;5033113;28;20049;-78
2023/03/17 11:03:36;;;;;;;8.35;4.70;;;15.20;99.90;;;;;;5050496;28;20367;-77
2023/03/17 11:06:07;;;;;;;7.70;4.43;;;15.60;99.90;;;;;;5040059;28;20060;-77
2023/03/17 11:08:38;;;;;;;;;;;15.90;99.90;;;;;;5038334;28;20597;-77
2023/03/17 11:11:20;;;;;;;7.05;4.32;;;15.50;99.90;;;;;;5050955;28;20381;-77
2023/03/17 11:13:47;;;;;;;9.23;4.68;;;15.90;99.90;;;;;;5031836;28;20849;-77
2023/03/17 11:16:23;;;;;;;6.65;4.45;;;16.10;99.90;;;;;;5040885;28;20049;-79
2023/03/17 11:18:56;;;;;;;6.47;4.55;;;16.20;99.90;;;;;;5031776;28;20056;-78
2023/03/17 11:21:33;;;;;;;7.72;4.47;;;16.50;99.90;;;;;;5031703;28;20159;-77
2023/03/17 11:24:13;;;;;;;7.13;4.50;;;15.90;99.90;;;;;;5048866;28;20533;-77
2023/03/17 11:27:09;;;;;;;8.07;4.85;;;15.70;99.90;;;;;;5035410;28;20063;-77
2023/03/17 11:30:02;;;;;;;8.73;5.30;;;15.40;99.90;;;;;;5010069;28;20090;-77
2023/03/17 11:32:39;;;;;;;9.20;5.05;;;15.40;99.90;;;;;;5062567;28;20050;-76
2023/03/17 11:35:22;;;;;;;7.10;4.38;;;15.40;99.90;;;;;;5052865;28;20053;-79
2023/03/17 11:37:54;;;;;;;5.97;4.47;;;15.80;99.90;;;;;;5036596;28;20255;-77
2023/03/17 11:40:42;;;;;;;7.10;5.03;;;16.20;99.90;;;;;;5047132;28;20052;-78
2023/03/17 11:43:39;;;;;;;7.43;4.90;;;16.40;99.90;;;;;;5044370;28;20048;-78
2023/03/17 11:46:28;;;;;;;8.95;4.65;;;16.50;99.90;;;;;;5042289;28;20121;-79
2023/03/17 11:49:06;;;;;;;7.82;5.07;;;16.70;99.90;;;;;;5009838;28;20040;-76
2023/03/17 11:52:03;;;;;;;8.05;4.72;;;17.10;99.90;;;;;;5028713;28;20105;-77
2023/03/17 11:54:46;;;;;;;7.55;5.25;;;16.80;99.90;;;;;;5027753;28;20060;-78
2023/03/17 11:57:21;;;;;;;5.95;4.63;;;16.80;99.90;;;;;;5030375;28;20059;-79
2023/03/17 11:59:57;;;;;;;7.03;4.68;;;16.80;99.90;;;;;;5045988;28;20362;-77
2023/03/17 12:02:37;;;;;;;6.82;4.53;;;16.80;99.90;;;;;;5051466;28;20056;-78
2023/03/17 12:05:14;;;;;;;8.65;4.78;;;16.80;99.90;;;;;;5045840;28;20052;-76
2023/03/17 12:07:57;;;;;;;9.00;5.00;;;16.80;99.90;;;;;;5012024;28;20047;-77
2023/03/17 12:10:39;;;;;;;7.70;5.40;;;17.00;99.90;;;;;;5045557;28;20506;-77
2023/03/17 12:13:15;;;;;;;8.10;5.13;;;17.40;99.90;;;;;;5044964;28;20049;-78
2023/03/17 12:15:47;;;;;;;7.65;5.13;;;17.70;99.90;;;;;;5045823;28;20055;-76
2023/03/17 12:18:29;;;;;;;10.65;5.30;;;17.70;99.90;;;;;;5029435;28;20505;-78
2023/03/17 12:21:20;;;;;;;8.15;5.35;;;17.80;99.90;;;;;;5048566;28;20761;-77
2023/03/17 12:23:47;;;;;;;8.33;5.43;;;17.60;99.70;;;;;;5044062;28;20051;-77
2023/03/17 12:26:20;;;;;;;8.50;5.57;;;17.40;99.80;;;;;;5005341;28;20045;-78
2023/03/17 12:28:55;;;;;;;7.88;5.68;;;17.60;99.70;;;;;;5036542;28;20045;-76
2023/03/17 12:31:27;;;;;;;7.63;5.47;;;17.70;99.90;;;;;;5044613;28;20340;-77
2023/03/17 12:34:24;;;;;;;8.63;5.90;;;17.10;99.70;;;;;;5026783;28;20578;-78
2023/03/17 12:36:51;;;;;;;9.18;6.20;;;17.20;99.90;;;;;;5027366;28;20056;-77
2023/03/17 12:39:27;;;;;;;11.73;6.60;;;17.20;99.90;;;;;;5009294;28;20052;-79
2023/03/17 12:42:00;;;;;;;10.30;5.75;;;17.40;99.90;;;;;;5024804;28;20056;-77
2023/03/17 12:44:47;;;;;;;10.32;6.00;;;16.80;99.90;;;;;;5042405;28;20690;-77
2023/03/17 12:47:30;;;;;;;11.70;6.07;;;16.70;99.90;;;;;;5026139;28;20524;-78
2023/03/17 12:50:22;;;;;;;8.20;5.50;;;16.60;99.90;;;;;;5042206;28;20175;-78
2023/03/17 12:53:28;;;;;;;11.38;6.50;;;16.80;99.90;;;;;;5041551;28;20053;-78
2023/03/17 12:55:59;;;;;;;7.78;5.68;;;16.60;99.90;;;;;;5025540;28;20451;-76
2023/03/17 12:58:33;;;;;;;8.45;6.38;;;16.60;99.90;;;;;;5028808;28;20056;-78
2023/03/17 13:01:27;;;;;;;9.38;5.35;;;16.60;99.90;;;;;;5045506;28;20251;-76
2023/03/17 13:04:16;;;;;;;9.30;5.95;;;16.30;99.90;;;;;;5040396;28;20460;-76
2023/03/17 13:06:53;;;;;;;12.20;6.28;;;16.10;99.90;;;;;;5028854;28;20052;-77